Time;durP1;ratioP1;P1;durP2;ratioP2;P2;SDS_P1;SDS_P2;PMS_P1;PMS_P2;Temp;Humidity;BMP_temperature;BMP_pressure;BME280_temperature;BME280_humidity;BME280_pressure;Samples;Min_cycle;Max_cycle;Signal;HPM_P1;HPM_P2
2023/03/29 00:01:43;;;;;;;6.63;3.27;;;;;;;5.98;100.00;99008.22;31214837;28;20057;-77
2023/03/29 00:16:45;;;;;;;4.00;2.60;;;;;;;6.08;100.00;99018.03;31176859;28;20131;-77
2023/03/29 00:31:53;;;;;;;2.47;1.90;;;;;;;5.92;100.00;99034.09;31205447;28;20458;-77
2023/03/29 00:46:54;;;;;;;5.17;2.43;;;;;;;6.01;100.00;99058.56;31215628;28;20099;-77
2023/03/29 01:02:01;;;;;;;3.80;2.20;;;;;;;5.97;100.00;99085.56;31209916;28;20049;-77
2023/03/29 01:17:04;;;;;;;4.53;2.07;;;;;;;5.80;100.00;99092.75;31187634;28;20107;-78
2023/03/29 01:32:12;;;;;;;4.17;2.20;;;;;;;5.58;100.00;99107.75;31178225;28;20050;-78
2023/03/29 01:48:00;;;;;;;3.90;2.70;;;;;;;5.22;100.00;99125.56;31183604;28;20053;-78
2023/03/29 02:03:05;;;;;;;;;;;;;;;5.13;100.00;99120.69;31214686;28;20115;-78
2023/03/29 02:18:07;;;;;;;1.83;1.53;;;;;;;4.87;100.00;99121.41;31172602;28;19921;-77
2023/03/29 02:33:16;;;;;;;5.20;1.73;;;;;;;5.04;100.00;99136.56;31227482;28;20138;-76
2023/03/29 02:48:22;;;;;;;2.10;1.87;;;;;;;4.98;100.00;99155.06;31186423;28;20097;-77
2023/03/29 03:03:24;;;;;;;3.08;2.53;;;;;;;5.01;100.00;99167.72;31217646;28;20053;-78
2023/03/29 03:18:26;;;;;;;6.50;3.43;;;;;;;4.96;100.00;99170.84;31197333;28;20084;-79
2023/03/29 03:33:29;;;;;;;5.67;3.77;;;;;;;4.95;100.00;99185.47;31135857;28;20570;-79
2023/03/29 03:48:31;;;;;;;5.20;3.70;;;;;;;4.87;100.00;99192.09;31145719;28;20143;-79
2023/03/29 04:03:33;;;;;;;2.83;2.03;;;;;;;5.00;100.00;99201.16;31136745;28;20187;-78
2023/03/29 04:18:35;;;;;;;3.43;2.50;;;;;;;4.80;100.00;99216.38;31104722;28;20049;-77
2023/03/29 04:33:38;;;;;;;3.77;2.60;;;;;;;5.33;100.00;99247.28;31124257;28;20085;-77
2023/03/29 04:48:40;;;;;;;3.53;3.20;;;;;;;5.01;100.00;99264.53;31142277;28;20447;-78
2023/03/29 05:03:42;;;;;;;6.60;4.07;;;;;;;4.82;100.00;99293.94;31142914;28;20050;-78
2023/03/29 05:18:44;;;;;;;19.57;9.23;;;;;;;5.04;100.00;99341.00;31117491;28;20045;-79
2023/03/29 05:33:47;;;;;;;4.77;3.50;;;;;;;5.09;100.00;99335.94;31173250;28;20057;-77
2023/03/29 05:48:49;;;;;;;4.53;3.00;;;;;;;5.10;100.00;99345.56;31181900;28;20045;-79
2023/03/29 06:03:51;;;;;;;4.97;3.30;;;;;;;5.21;100.00;99366.19;31233098;28;20049;-77
2023/03/29 06:18:58;;;;;;;4.53;3.00;;;;;;;5.43;100.00;99386.38;31232270;28;20540;-83
2023/03/29 06:34:01;;;;;;;6.63;3.67;;;;;;;5.43;100.00;99402.53;31242488;28;20050;-83
2023/03/29 06:49:03;;;;;;;4.47;3.23;;;;;;;5.29;100.00;99446.47;31227295;28;20254;-76
2023/03/29 07:04:07;;;;;;;3.80;2.73;;;;;;;5.28;100.00;99452.25;31206325;28;20053;-78
2023/03/29 07:19:09;;;;;;;4.20;2.80;;;;;;;5.54;100.00;99462.41;31248567;28;20045;-79
2023/03/29 07:34:11;;;;;;;5.90;3.50;;;;;;;5.59;100.00;99463.91;31280463;28;20062;-79
2023/03/29 07:49:13;;;;;;;5.53;3.10;;;;;;;5.69;100.00;99463.78;31253102;28;20061;-77
2023/03/29 08:04:15;;;;;;;4.13;2.70;;;;;;;5.78;100.00;99471.38;31187609;28;20459;-78
2023/03/29 08:19:17;;;;;;;7.20;3.07;;;;;;;6.09;100.00;99474.94;31213235;28;20411;-86
2023/03/29 08:34:20;;;;;;;5.00;3.23;;;;;;;6.45;100.00;99470.63;31185217;28;20046;-78
2023/03/29 08:49:22;;;;;;;4.07;2.73;;;;;;;6.33;100.00;99490.06;31185976;28;20080;-76
2023/03/29 09:04:33;;;;;;;3.57;2.90;;;;;;;6.15;100.00;99508.34;31196106;28;20041;-84
2023/03/29 09:19:49;;;;;;;5.27;3.30;;;;;;;6.34;100.00;99542.03;31197104;28;20050;-87
2023/03/29 09:35:02;;;;;;;3.13;2.83;;;;;;;6.14;100.00;99568.81;31174040;28;20053;-76
2023/03/29 09:50:12;;;;;;;4.57;3.27;;;;;;;6.12;100.00;99598.09;31199401;28;20057;-76
2023/03/29 10:05:35;;;;;;;4.00;2.80;;;;;;;6.38;100.00;99621.69;31212389;28;20057;-74
2023/03/29 10:20:39;;;;;;;4.43;3.30;;;;;;;6.34;100.00;99656.03;31188922;28;20057;-74
2023/03/29 10:35:42;;;;;;;4.10;3.40;;;;;;;6.03;100.00;99662.47;31191621;28;20400;-79
2023/03/29 10:50:51;;;;;;;3.90;2.97;;;;;;;6.36;100.00;99677.97;31216740;28;20419;-74
2023/03/29 11:06:06;;;;;;;8.70;2.93;;;;;;;6.28;100.00;99695.34;31207058;28;20056;-75
2023/03/29 11:21:14;;;;;;;3.23;2.50;;;;;;;6.00;100.00;99709.06;31225912;28;20489;-75
2023/03/29 11:36:57;;;;;;;4.17;3.00;;;;;;;5.76;100.00;99726.88;31210022;28;20095;-77
2023/03/29 11:52:12;;;;;;;4.60;3.20;;;;;;;5.78;100.00;99732.66;31136668;28;20075;-76
2023/03/29 12:07:40;;;;;;;4.47;3.07;;;;;;;5.78;100.00;99741.50;31199817;28;20054;-74
2023/03/29 12:22:45;;;;;;;4.87;3.30;;;;;;;5.72;100.00;99756.53;31225660;28;20053;-76
2023/03/29 12:38:07;;;;;;;6.00;3.90;;;;;;;5.49;100.00;99767.03;31210972;28;20049;-74
2023/03/29 12:53:21;;;;;;;7.97;4.30;;;;;;;5.04;100.00;99774.88;31201845;28;20107;-74
2023/03/29 13:08:34;;;;;;;7.50;4.77;;;;;;;5.07;100.00;99776.81;31214017;28;20053;-74
2023/03/29 13:23:42;;;;;;;6.50;3.93;;;;;;;5.06;100.00;99804.88;31200948;28;20053;-78
2023/03/29 13:38:48;;;;;;;9.17;4.87;;;;;;;5.06;100.00;99821.00;31202804;28;20049;-73
2023/03/29 13:54:00;;;;;;;7.27;4.40;;;;;;;4.94;100.00;99824.13;31205733;28;20058;-79
2023/03/29 14:09:08;;;;;;;11.73;5.93;;;;;;;5.02;100.00;99857.13;31172021;28;20058;-80
2023/03/29 14:24:16;;;;;;;9.77;5.23;;;;;;;5.01;100.00;99860.97;31195280;28;20103;-76
2023/03/29 14:39:22;;;;;;;7.37;4.53;;;;;;;4.77;100.00;99875.97;31230285;28;20045;-77
2023/03/29 14:54:27;;;;;;;5.70;4.38;;;;;;;4.70;100.00;99902.88;31223837;28;20519;-75
2023/03/29 15:09:33;;;;;;;10.93;5.60;;;;;;;4.65;100.00;99914.00;31225840;28;20118;-75
2023/03/29 15:24:43;;;;;;;9.50;6.50;;;;;;;4.58;100.00;99930.88;31225882;28;20053;-75
2023/03/29 15:39:46;;;;;;;7.83;5.13;;;;;;;4.62;100.00;99949.72;31205887;28;20053;-81
2023/03/29 15:54:47;;;;;;;10.77;5.47;;;;;;;4.68;100.00;99961.66;31195867;28;20064;-76
2023/03/29 16:09:50;;;;;;;9.90;4.50;;;;;;;4.81;100.00;99987.00;31217762;28;20060;-77
2023/03/29 16:24:51;;;;;;;7.53;4.67;;;;;;;4.79;100.00;99997.38;31198052;28;20054;-77
2023/03/29 16:39:57;;;;;;;13.23;6.30;;;;;;;5.12;100.00;99994.38;31201896;28;20395;-79
2023/03/29 16:54:59;;;;;;;6.87;4.27;;;;;;;5.04;100.00;100005.50;31229720;28;20080;-75
2023/03/29 17:10:03;;;;;;;6.37;3.63;;;;;;;5.11;100.00;100035.09;31198942;28;20041;-84
2023/03/29 17:25:07;;;;;;;5.10;3.33;;;;;;;4.96;100.00;100038.94;31196455;28;20053;-78
2023/03/29 17:40:12;;;;;;;5.50;3.43;;;;;;;5.04;100.00;100059.31;31178803;28;20053;-75
2023/03/29 17:55:15;;;;;;;6.83;4.10;;;;;;;4.70;100.00;100034.66;31200055;28;20061;-74
2023/03/29 18:10:17;;;;;;;13.60;5.27;;;;;;;4.74;100.00;100046.16;31169086;28;20046;-77
2023/03/29 18:25:19;;;;;;;6.20;4.47;;;;;;;4.70;100.00;100053.47;31195373;28;20114;-75
2023/03/29 18:40:23;;;;;;;7.30;4.13;;;;;;;4.72;100.00;100054.59;31192104;28;20096;-78
2023/03/29 18:55:26;;;;;;;24.97;11.87;;;;;;;4.71;100.00;100055.00;31202314;28;20581;-76
2023/03/29 19:10:28;;;;;;;7.00;3.70;;;;;;;4.67;100.00;100073.81;31260702;28;20045;-75
2023/03/29 19:25:30;;;;;;;8.53;4.60;;;;;;;4.72;100.00;100070.00;31216158;28;20203;-75
2023/03/29 19:40:33;;;;;;;11.37;5.87;;;;;;;4.66;100.00;100066.13;31200886;28;20049;-76
2023/03/29 19:55:41;;;;;;;10.67;5.23;;;;;;;4.65;100.00;100068.03;31220624;28;20053;-75
2023/03/29 20:10:43;;;;;;;7.30;4.00;;;;;;;4.49;100.00;100082.97;31176482;28;20065;-76
2023/03/29 20:25:45;;;;;;;5.93;3.83;;;;;;;4.56;100.00;100093.72;31173905;28;20058;-77
2023/03/29 20:40:50;;;;;;;5.23;2.90;;;;;;;4.70;100.00;100101.88;31167122;28;20058;-74
2023/03/29 20:55:51;;;;;;;5.50;4.20;;;;;;;4.82;100.00;100101.53;31171435;28;20061;-76
2023/03/29 21:10:55;;;;;;;4.67;2.70;;;;;;;4.42;100.00;100095.22;31195080;28;20041;-76
2023/03/29 21:25:56;;;;;;;4.23;2.80;;;;;;;4.42;100.00;100089.06;31196381;28;20045;-75
2023/03/29 21:40:59;;;;;;;6.03;3.17;;;;;;;4.42;100.00;100070.25;31225385;28;20053;-76
2023/03/29 21:56:01;;;;;;;5.20;2.83;;;;;;;4.38;100.00;100067.53;31206548;28;20140;-76
2023/03/29 22:11:09;;;;;;;5.80;3.43;;;;;;;4.47;100.00;100091.41;31211734;28;20524;-75
2023/03/29 22:26:13;;;;;;;4.03;2.57;;;;;;;4.40;100.00;100108.25;31201477;28;20045;-74
2023/03/29 22:41:17;;;;;;;4.60;2.93;;;;;;;4.30;100.00;100114.31;31193044;28;20057;-75
2023/03/29 22:56:19;;;;;;;2.87;2.23;;;;;;;4.24;100.00;100110.47;31197484;28;20108;-77
2023/03/29 23:11:21;;;;;;;3.60;2.50;;;;;;;3.95;100.00;100111.41;31197798;28;20053;-76
2023/03/29 23:26:23;;;;;;;3.60;2.70;;;;;;;4.02;100.00;100130.25;31249763;28;20506;-75
2023/03/29 23:41:29;;;;;;;4.17;2.70;;;;;;;4.26;100.00;100120.81;31209805;28;20088;-75
2023/03/29 23:56:31;;;;;;;5.85;3.63;;;;;;;4.13;100.00;100120.38;31191161;28;20045;-77
